Time;durP1;ratioP1;P1;durP2;ratioP2;P2;SDS_P1;SDS_P2;PMS_P1;PMS_P2;Temp;Humidity;BMP_temperature;BMP_pressure;BME280_temperature;BME280_humidity;BME280_pressure;Samples;Min_cycle;Max_cycle;Signal;HPM_P1;HPM_P2
2022/06/28 00:01:52;;;;;;;21.23;5.97;;;31.40;1.00;;;;;;5156231;27;20321;-63
2022/06/28 00:04:19;;;;;;;16.67;5.93;;;31.20;1.00;;;;;;5155155;27;20085;-62
2022/06/28 00:06:45;;;;;;;18.77;5.75;;;31.30;1.00;;;;;;5155438;27;20052;-63
2022/06/28 00:09:11;;;;;;;18.58;6.40;;;31.30;1.00;;;;;;5154895;27;20475;-62
2022/06/28 00:11:38;;;;;;;21.67;6.07;;;31.30;1.00;;;;;;5140888;27;20047;-63
2022/06/28 00:16:04;;;;;;;22.50;6.50;;;31.30;1.00;;;;;;5155195;27;20053;-62
2022/06/28 00:16:50;;;;;;;13.15;4.82;;;31.30;1.00;;;;;;5154380;27;20492;-62
2022/06/28 00:19:16;;;;;;;17.23;6.22;;;31.30;1.00;;;;;;5154694;27;20022;-63
2022/06/28 00:21:42;;;;;;;22.17;6.38;;;31.20;1.00;;;;;;5155807;27;20084;-63
2022/06/28 00:24:08;;;;;;;21.95;5.72;;;31.10;1.00;;;;;;5151167;27;20493;-63
2022/06/28 00:26:33;;;;;;;17.17;5.90;;;30.90;1.00;;;;;;5147532;27;20047;-63
2022/06/28 00:28:59;;;;;;;21.67;5.45;;;30.80;1.00;;;;;;5154426;27;20077;-62
2022/06/28 00:31:25;;;;;;;16.80;5.32;;;30.80;1.00;;;;;;5155520;27;20099;-63
2022/06/28 00:33:51;;;;;;;16.17;5.90;;;30.80;1.00;;;;;;5151978;27;20031;-63
2022/06/28 00:36:17;;;;;;;14.57;5.60;;;30.70;1.00;;;;;;5155549;27;20027;-63
2022/06/28 00:38:43;;;;;;;21.65;7.00;;;30.70;1.00;;;;;;5153033;27;20038;-63
2022/06/28 00:41:09;;;;;;;25.42;7.25;;;30.70;1.00;;;;;;5154981;27;20030;-63
2022/06/28 00:43:35;;;;;;;19.33;5.90;;;30.60;1.00;;;;;;5154126;27;20416;-63
2022/06/28 00:46:02;;;;;;;15.82;5.75;;;30.60;1.00;;;;;;5140340;27;20023;-63
2022/06/28 00:48:28;;;;;;;20.17;5.60;;;30.60;1.00;;;;;;5150829;27;20050;-63
2022/06/28 00:50:54;;;;;;;16.85;4.97;;;30.60;1.00;;;;;;5139587;27;20023;-63
2022/06/28 00:53:19;;;;;;;21.60;5.88;;;30.50;1.00;;;;;;5152002;27;20062;-62
2022/06/28 00:55:46;;;;;;;20.90;5.78;;;30.60;1.00;;;;;;5149823;27;20388;-63
2022/06/28 00:58:13;;;;;;;16.70;5.25;;;30.50;1.00;;;;;;5151574;27;20022;-63
2022/06/28 01:00:47;;;;;;;11.80;5.53;;;30.50;1.00;;;;;;5151391;27;20042;-63
2022/06/28 01:03:15;;;;;;;20.23;5.47;;;30.50;1.00;;;;;;5151641;27;20046;-63
2022/06/28 01:05:42;;;;;;;19.38;5.13;;;30.60;1.00;;;;;;5151375;27;20106;-63
2022/06/28 01:08:09;;;;;;;17.95;6.00;;;30.50;1.00;;;;;;5144698;27;20054;-63
2022/06/28 01:10:36;;;;;;;20.83;5.68;;;30.50;1.00;;;;;;5148484;27;20038;-63
2022/06/28 01:13:02;;;;;;;15.90;5.22;;;30.50;1.00;;;;;;5139872;27;20103;-63
2022/06/28 01:15:28;;;;;;;15.75;5.30;;;30.40;1.00;;;;;;5152474;27;20022;-63
2022/06/28 01:17:54;;;;;;;19.08;5.53;;;30.40;1.00;;;;;;5154042;27;20027;-63
2022/06/28 01:20:21;;;;;;;18.90;6.70;;;30.60;1.00;;;;;;5153465;27;20110;-63
2022/06/28 01:22:47;;;;;;;16.23;6.20;;;30.50;1.00;;;;;;5154604;27;20440;-63
2022/06/28 01:25:13;;;;;;;17.30;5.15;;;30.50;1.00;;;;;;5151138;27;20064;-63
2022/06/28 01:27:40;;;;;;;16.30;5.70;;;30.60;1.00;;;;;;5153741;27;20599;-63
2022/06/28 01:30:07;;;;;;;15.82;4.72;;;30.70;1.00;;;;;;5151285;27;20076;-63
2022/06/28 01:32:33;;;;;;;17.92;6.07;;;30.50;1.00;;;;;;5153443;27;20061;-63
2022/06/28 01:35:00;;;;;;;19.70;5.53;;;30.30;1.00;;;;;;5151327;27;20075;-63
2022/06/28 01:37:26;;;;;;;16.23;5.70;;;30.50;1.00;;;;;;5153341;27;20025;-62
2022/06/28 01:39:52;;;;;;;13.93;5.68;;;30.40;1.00;;;;;;5149015;27;20081;-62
2022/06/28 01:42:18;;;;;;;17.85;5.72;;;30.40;1.00;;;;;;5153321;27;20141;-62
2022/06/28 01:44:45;;;;;;;18.13;5.43;;;30.30;1.00;;;;;;5152524;27;20026;-63
2022/06/28 01:47:12;;;;;;;18.20;4.95;;;30.30;1.00;;;;;;5153190;27;20023;-63
2022/06/28 01:49:39;;;;;;;19.80;6.45;;;30.50;1.00;;;;;;5143157;27;20117;-62
2022/06/28 01:52:05;;;;;;;16.45;5.18;;;30.30;1.00;;;;;;5152809;27;20464;-62
2022/06/28 01:54:31;;;;;;;18.50;5.95;;;30.40;1.00;;;;;;5151057;27;20031;-62
2022/06/28 01:56:57;;;;;;;14.15;5.93;;;30.40;1.00;;;;;;5152647;27;20030;-62
2022/06/28 01:59:23;;;;;;;17.40;5.20;;;30.40;1.00;;;;;;5150890;27;20337;-62
2022/06/28 02:01:50;;;;;;;17.08;5.63;;;30.20;1.00;;;;;;5137522;27;20075;-62
2022/06/28 02:04:27;;;;;;;15.15;5.25;;;30.20;1.00;;;;;;5151054;27;20603;-63
2022/06/28 02:06:54;;;;;;;20.70;6.05;;;30.20;1.00;;;;;;5152467;27;20114;-63
2022/06/28 02:09:19;;;;;;;16.25;5.05;;;30.10;1.00;;;;;;5151738;27;20034;-63
2022/06/28 02:11:45;;;;;;;16.55;5.50;;;30.10;1.00;;;;;;5148280;27;20062;-63
2022/06/28 02:14:11;;;;;;;17.60;5.35;;;30.10;1.00;;;;;;5143228;27;20038;-63
2022/06/28 02:16:37;;;;;;;16.38;5.53;;;30.10;1.00;;;;;;5145911;27;20038;-62
2022/06/28 02:19:03;;;;;;;13.35;5.68;;;30.10;1.00;;;;;;5149406;27;20033;-62
2022/06/28 02:21:36;;;;;;;15.65;5.65;;;30.20;1.00;;;;;;5146951;27;20060;-62
2022/06/28 02:24:02;;;;;;;14.98;5.97;;;30.10;1.00;;;;;;5150190;27;20106;-62
2022/06/28 02:26:28;;;;;;;18.25;5.82;;;30.00;1.00;;;;;;5152923;27;20022;-63
2022/06/28 02:28:53;;;;;;;18.38;5.53;;;30.10;1.00;;;;;;5151515;27;20099;-62
2022/06/28 02:31:19;;;;;;;14.50;6.07;;;30.00;1.00;;;;;;5146854;27;20452;-62
2022/06/28 02:33:45;;;;;;;18.80;6.75;;;30.00;1.00;;;;;;5144721;27;20106;-62
2022/06/28 02:41:39;;;;;;;;;;;30.00;1.00;;;;;;5141172;27;20026;-62
2022/06/28 02:44:05;;;;;;;20.23;6.25;;;30.00;1.00;;;;;;5151148;27;20007;-62
2022/06/28 02:46:31;;;;;;;17.90;6.13;;;29.90;1.00;;;;;;5153215;27;20092;-62
2022/06/28 02:48:57;;;;;;;16.15;5.40;;;29.90;1.00;;;;;;5152415;27;20027;-62
2022/06/28 02:51:22;;;;;;;15.00;5.63;;;29.90;1.00;;;;;;5152750;27;20039;-63
2022/06/28 02:53:48;;;;;;;18.15;5.75;;;29.80;1.00;;;;;;5152980;27;20224;-62
2022/06/28 02:56:14;;;;;;;20.48;6.28;;;29.90;1.00;;;;;;5143512;27;20054;-62
2022/06/28 02:58:40;;;;;;;16.65;5.45;;;29.90;1.00;;;;;;5139530;27;20148;-62
2022/06/28 03:01:06;;;;;;;16.17;5.75;;;29.90;1.00;;;;;;5150968;27;20030;-62
2022/06/28 03:03:31;;;;;;;15.48;6.13;;;30.00;1.00;;;;;;5143396;27;20023;-62
2022/06/28 03:05:57;;;;;;;15.95;5.13;;;29.80;1.00;;;;;;5139651;27;20041;-63
2022/06/28 03:08:23;;;;;;;16.77;6.10;;;29.90;1.00;;;;;;5153032;27;20117;-63
2022/06/28 03:10:49;;;;;;;21.58;6.15;;;29.70;1.00;;;;;;5151751;27;20046;-63
2022/06/28 03:13:14;;;;;;;18.67;6.68;;;29.80;1.00;;;;;;5153165;27;20376;-63
2022/06/28 03:15:40;;;;;;;14.25;5.93;;;29.80;1.00;;;;;;5151955;27;20079;-63
2022/06/28 03:18:06;;;;;;;14.65;5.10;;;29.80;1.00;;;;;;5152603;27;20015;-62
2022/06/28 03:20:32;;;;;;;16.65;6.47;;;29.70;1.00;;;;;;5151829;27;20050;-62
2022/06/28 03:22:58;;;;;;;19.30;5.47;;;29.70;1.00;;;;;;5152821;27;20464;-62
2022/06/28 03:25:23;;;;;;;15.48;5.85;;;29.80;1.00;;;;;;5151752;27;20109;-62
2022/06/28 03:27:50;;;;;;;18.42;5.85;;;29.70;1.00;;;;;;5152695;27;20039;-62
2022/06/28 03:30:15;;;;;;;15.02;5.50;;;29.70;1.00;;;;;;5150685;27;20480;-62
2022/06/28 03:32:41;;;;;;;21.23;5.78;;;29.60;1.00;;;;;;5151833;27;20038;-62
2022/06/28 03:35:08;;;;;;;15.20;5.93;;;29.70;1.00;;;;;;5144508;27;20114;-62
2022/06/28 03:37:34;;;;;;;19.85;5.97;;;29.70;1.00;;;;;;5151204;27;20018;-62
2022/06/28 03:40:00;;;;;;;17.00;5.32;;;29.60;1.00;;;;;;5151241;27;20089;-62
2022/06/28 03:42:26;;;;;;;16.55;4.93;;;29.60;1.00;;;;;;5155830;27;20018;-62
2022/06/28 03:44:52;;;;;;;13.27;5.68;;;29.70;1.00;;;;;;5143498;27;20088;-62
2022/06/28 03:47:18;;;;;;;17.55;5.43;;;29.50;1.00;;;;;;5156561;27;20080;-62
2022/06/28 03:49:43;;;;;;;13.95;5.68;;;29.40;1.00;;;;;;5155014;27;20027;-61
2022/06/28 03:52:09;;;;;;;16.88;5.68;;;29.40;1.00;;;;;;5156247;27;20025;-62
2022/06/28 03:54:35;;;;;;;14.15;5.55;;;29.30;1.00;;;;;;5148251;27;20649;-62
2022/06/28 03:57:01;;;;;;;18.30;5.78;;;29.30;1.00;;;;;;5156046;27;20038;-62
2022/06/28 03:59:27;;;;;;;18.55;6.22;;;29.30;1.00;;;;;;5153763;27;20020;-62
2022/06/28 04:01:52;;;;;;;15.02;4.75;;;29.20;1.00;;;;;;5154750;27;20090;-62
2022/06/28 04:04:18;;;;;;;16.55;5.55;;;29.30;1.00;;;;;;5155512;27;20495;-63
2022/06/28 04:06:44;;;;;;;14.27;5.90;;;29.30;1.00;;;;;;5154939;27;20230;-63
2022/06/28 04:09:09;;;;;;;15.90;5.47;;;29.40;1.00;;;;;;5155936;27;20038;-63
2022/06/28 04:11:35;;;;;;;17.35;5.63;;;29.30;1.00;;;;;;5140238;27;20113;-63
2022/06/28 04:14:00;;;;;;;13.32;4.90;;;29.20;1.00;;;;;;5155904;27;20026;-63
2022/06/28 04:16:26;;;;;;;18.13;5.50;;;29.20;1.00;;;;;;5139801;27;20029;-63
2022/06/28 04:18:52;;;;;;;12.50;5.53;;;29.20;1.00;;;;;;5155801;27;20048;-63
2022/06/28 04:21:19;;;;;;;16.55;5.20;;;29.20;1.00;;;;;;5154420;27;20019;-63
2022/06/28 04:23:44;;;;;;;15.93;5.70;;;29.30;1.00;;;;;;5155546;27;20106;-63
2022/06/28 04:26:11;;;;;;;16.77;5.18;;;29.30;1.00;;;;;;5154564;27;20050;-63
2022/06/28 04:28:36;;;;;;;13.02;5.05;;;29.30;1.00;;;;;;5155479;27;20054;-63
2022/06/28 04:31:03;;;;;;;19.52;5.43;;;29.40;1.00;;;;;;5154273;27;20497;-63
2022/06/28 04:33:29;;;;;;;19.05;5.90;;;29.30;1.00;;;;;;5155584;27;20364;-63
2022/06/28 04:35:55;;;;;;;17.17;5.55;;;29.30;1.00;;;;;;5153717;27;20098;-63
2022/06/28 04:38:21;;;;;;;16.70;5.63;;;29.30;1.00;;;;;;5155497;27;20142;-63
2022/06/28 04:40:47;;;;;;;16.85;5.88;;;29.30;1.00;;;;;;5139508;27;20014;-63
2022/06/28 04:43:13;;;;;;;16.60;5.13;;;29.30;1.00;;;;;;5154343;27;20042;-63
2022/06/28 04:45:39;;;;;;;16.73;4.90;;;29.30;1.00;;;;;;5154198;27;20027;-63
2022/06/28 04:48:05;;;;;;;17.30;5.50;;;29.30;1.00;;;;;;5155023;27;20023;-63
2022/06/28 04:50:31;;;;;;;16.00;5.63;;;29.30;1.00;;;;;;5153908;27;20476;-63
2022/06/28 04:52:57;;;;;;;14.15;5.43;;;29.30;1.00;;;;;;5154207;27;20030;-63
2022/06/28 04:55:23;;;;;;;15.05;5.45;;;29.30;1.00;;;;;;5153767;27;20436;-63
2022/06/28 04:57:48;;;;;;;20.13;5.40;;;29.30;1.00;;;;;;5144277;27;20072;-63
2022/06/28 05:00:14;;;;;;;14.77;4.80;;;29.30;1.00;;;;;;5153684;27;20110;-63
2022/06/28 05:02:40;;;;;;;16.90;5.57;;;29.30;1.00;;;;;;5155100;27;20031;-63
2022/06/28 05:05:08;;;;;;;14.80;5.18;;;29.30;1.00;;;;;;5153609;27;20033;-63
2022/06/28 05:07:34;;;;;;;19.48;5.55;;;29.30;1.00;;;;;;5139465;27;20329;-63
2022/06/28 05:10:01;;;;;;;14.93;4.90;;;29.30;1.00;;;;;;5148197;27;20030;-63
2022/06/28 05:12:26;;;;;;;16.52;4.50;;;29.30;1.00;;;;;;5154830;27;20365;-62
2022/06/28 05:14:52;;;;;;;15.15;5.30;;;29.20;1.00;;;;;;5153264;27;20090;-63
2022/06/28 05:17:18;;;;;;;16.40;5.30;;;29.30;1.00;;;;;;5141324;27;20027;-62
2022/06/28 05:19:43;;;;;;;16.40;5.07;;;29.20;1.00;;;;;;5149359;27;20079;-61
2022/06/28 05:22:09;;;;;;;17.52;5.90;;;29.00;1.00;;;;;;5154347;27;20027;-62
2022/06/28 05:24:35;;;;;;;17.15;4.95;;;29.00;1.00;;;;;;5138761;27;20059;-61
2022/06/28 05:27:01;;;;;;;12.35;4.93;;;29.00;1.00;;;;;;5150888;27;20094;-62
2022/06/28 05:29:27;;;;;;;9.38;4.68;;;28.90;1.00;;;;;;5154285;27;20023;-62
2022/06/28 05:31:53;;;;;;;14.95;4.80;;;28.80;1.00;;;;;;5153174;27;20114;-62
2022/06/28 05:34:18;;;;;;;14.52;5.20;;;28.80;1.00;;;;;;5151022;27;20019;-62
2022/06/28 05:36:44;;;;;;;18.02;4.93;;;28.70;1.00;;;;;;5148564;27;20722;-62
2022/06/28 05:39:10;;;;;;;18.65;4.60;;;28.70;1.00;;;;;;5145638;27;20571;-62
2022/06/28 05:41:36;;;;;;;14.13;4.90;;;28.70;1.00;;;;;;5142637;27;20031;-62
2022/06/28 05:44:01;;;;;;;12.98;4.50;;;28.70;1.00;;;;;;5134957;27;20019;-62
2022/06/28 05:46:28;;;;;;;15.52;5.13;;;28.80;1.00;;;;;;5143374;27;20030;-63
2022/06/28 05:48:54;;;;;;;17.38;5.00;;;28.90;1.00;;;;;;5141664;27;20396;-63
2022/06/28 05:51:20;;;;;;;14.77;4.68;;;29.10;1.00;;;;;;5150451;27;20434;-62
2022/06/28 05:53:46;;;;;;;17.00;5.10;;;29.00;1.00;;;;;;5153996;27;20018;-63
2022/06/28 05:56:11;;;;;;;19.30;5.15;;;29.00;1.00;;;;;;5150403;27;20482;-62
2022/06/28 05:58:37;;;;;;;16.98;4.97;;;29.00;1.00;;;;;;5142329;27;20083;-63
2022/06/28 06:01:03;;;;;;;16.42;5.00;;;29.10;1.00;;;;;;5152889;27;20373;-62
2022/06/28 06:03:29;;;;;;;16.02;4.90;;;29.10;1.00;;;;;;5143484;27;20130;-62
2022/06/28 06:05:55;;;;;;;14.80;4.78;;;29.10;1.00;;;;;;5142404;27;20461;-61
2022/06/28 06:08:21;;;;;;;15.57;4.75;;;29.10;1.00;;;;;;5153537;27;20483;-62
2022/06/28 06:10:46;;;;;;;13.93;5.03;;;29.10;1.00;;;;;;5152800;27;20545;-63
2022/06/28 06:13:12;;;;;;;13.25;4.35;;;29.20;1.00;;;;;;5152935;27;20036;-63
2022/06/28 06:15:37;;;;;;;14.00;4.20;;;29.20;1.00;;;;;;5137430;27;20097;-63
2022/06/28 06:18:03;;;;;;;15.80;5.00;;;29.20;1.00;;;;;;5153653;27;20420;-63
2022/06/28 06:20:29;;;;;;;13.43;4.20;;;29.30;1.00;;;;;;5135475;27;20118;-63
2022/06/28 06:22:54;;;;;;;16.55;5.35;;;29.40;1.00;;;;;;5144121;27;20038;-63
2022/06/28 06:25:20;;;;;;;12.73;4.28;;;29.30;1.00;;;;;;5146824;27;20033;-63
2022/06/28 06:27:46;;;;;;;9.98;4.47;;;29.30;1.00;;;;;;5151021;27;20109;-63
2022/06/28 06:30:12;;;;;;;8.63;4.15;;;29.40;1.00;;;;;;5147405;27;20038;-63
2022/06/28 06:32:38;;;;;;;13.60;4.50;;;29.40;1.00;;;;;;5141513;27;20022;-62
2022/06/28 06:35:04;;;;;;;11.13;4.53;;;29.40;1.00;;;;;;5134916;27;20030;-62
2022/06/28 06:37:30;;;;;;;13.63;4.22;;;29.40;1.00;;;;;;5150044;27;20026;-63
2022/06/28 06:39:55;;;;;;;10.35;4.10;;;29.40;1.00;;;;;;5151468;27;20487;-63
2022/06/28 06:42:21;;;;;;;14.18;4.13;;;29.40;1.00;;;;;;5140073;27;20136;-62
2022/06/28 06:44:46;;;;;;;8.88;3.67;;;29.30;1.00;;;;;;5145316;27;20440;-63
2022/06/28 06:47:12;;;;;;;9.45;4.05;;;29.30;1.00;;;;;;5145085;27;20026;-63
2022/06/28 06:49:38;;;;;;;13.35;4.32;;;29.30;1.00;;;;;;5152638;27;20037;-63
2022/06/28 06:52:04;;;;;;;13.23;4.25;;;29.10;1.00;;;;;;5140847;27;20031;-63
2022/06/28 06:54:29;;;;;;;22.48;5.45;;;29.10;1.00;;;;;;5146558;27;20022;-63
2022/06/28 06:56:55;;;;;;;16.95;4.93;;;29.10;1.00;;;;;;5142248;27;20381;-64
2022/06/28 06:59:21;;;;;;;10.05;4.07;;;28.90;1.00;;;;;;5144236;27;20026;-62
2022/06/28 07:01:46;;;;;;;12.65;3.58;;;28.90;1.00;;;;;;5140316;27;20030;-62
2022/06/28 07:04:15;;;;;;;13.57;3.88;;;29.00;1.00;;;;;;5150978;27;20130;-62
2022/06/28 07:06:41;;;;;;;17.15;4.15;;;28.90;1.00;;;;;;5133930;27;20362;-62
2022/06/28 07:09:06;;;;;;;14.68;3.80;;;28.90;1.00;;;;;;5136429;27;20046;-63
2022/06/28 07:11:33;;;;;;;11.90;3.97;;;29.00;1.00;;;;;;5145734;27;20381;-63
2022/06/28 07:14:00;;;;;;;17.42;4.97;;;29.20;1.00;;;;;;5145058;27;20477;-63
2022/06/28 07:16:26;;;;;;;14.98;4.63;;;29.30;1.00;;;;;;5146914;27;20014;-62
2022/06/28 07:18:51;;;;;;;11.90;3.50;;;29.30;1.00;;;;;;5143752;27;20475;-61
2022/06/28 07:21:17;;;;;;;9.65;3.63;;;29.50;1.00;;;;;;5155771;27;20050;-66
2022/06/28 07:23:43;;;;;;;14.90;3.67;;;29.50;1.00;;;;;;5142991;27;20031;-67
2022/06/28 07:26:09;;;;;;;14.68;4.40;;;29.40;1.00;;;;;;5136257;27;20079;-67
2022/06/28 07:28:35;;;;;;;15.60;4.30;;;29.60;1.00;;;;;;5153295;27;20384;-66
2022/06/28 07:31:00;;;;;;;9.35;3.80;;;29.60;1.00;;;;;;5139150;27;20023;-64
2022/06/28 07:33:26;;;;;;;15.40;4.40;;;29.50;1.00;;;;;;5150849;27;20103;-68
2022/06/28 07:35:52;;;;;;;11.32;4.65;;;29.60;1.00;;;;;;5156929;27;20018;-68
2022/06/28 07:38:17;;;;;;;14.73;4.10;;;29.40;1.00;;;;;;5155796;27;20027;-71
2022/06/28 07:40:43;;;;;;;11.82;4.22;;;29.50;1.00;;;;;;5157072;27;20361;-59
2022/06/28 07:43:08;;;;;;;10.40;3.58;;;29.50;1.00;;;;;;5154351;27;20113;-58
2022/06/28 07:45:36;;;;;;;16.48;4.80;;;29.50;1.00;;;;;;5156266;27;20029;-59
2022/06/28 07:48:03;;;;;;;14.55;4.72;;;29.60;1.00;;;;;;5155098;27;20038;-62
2022/06/28 07:53:13;;;;;;;10.98;4.90;;;29.70;1.00;;;;;;5148056;27;20080;-64
2022/06/28 07:55:39;;;;;;;12.77;4.45;;;29.80;1.00;;;;;;5152524;27;20023;-66
2022/06/28 07:58:04;;;;;;;12.85;4.35;;;29.80;1.00;;;;;;5154643;27;20379;-60
2022/06/28 08:00:30;;;;;;;12.23;4.22;;;29.90;1.00;;;;;;5151676;27;20015;-59
2022/06/28 08:02:56;;;;;;;13.13;4.38;;;30.20;1.00;;;;;;5146838;27;20023;-59
2022/06/28 08:05:22;;;;;;;10.50;4.32;;;30.10;1.00;;;;;;5140084;27;20033;-60
2022/06/28 08:07:48;;;;;;;12.52;4.43;;;30.10;1.00;;;;;;5151113;27;20368;-61
2022/06/28 08:10:14;;;;;;;11.82;4.10;;;30.10;1.00;;;;;;5153316;27;21783;-65
2022/06/28 08:12:40;;;;;;;12.02;5.22;;;30.10;1.00;;;;;;5147402;27;20027;-59
2022/06/28 08:15:07;;;;;;;17.20;5.28;;;30.20;1.00;;;;;;5147103;27;20026;-63
2022/06/28 08:17:33;;;;;;;16.65;4.65;;;30.10;1.00;;;;;;5145962;27;20023;-65
2022/06/28 08:19:59;;;;;;;11.07;3.95;;;30.30;1.00;;;;;;5153773;27;20018;-64
2022/06/28 08:22:25;;;;;;;14.32;4.10;;;30.30;1.00;;;;;;5141237;27;20433;-64
2022/06/28 08:24:50;;;;;;;10.00;4.15;;;30.30;1.00;;;;;;5149671;27;20030;-65
2022/06/28 08:27:16;;;;;;;9.93;3.97;;;30.50;1.00;;;;;;5137053;27;20487;-67
2022/06/28 08:29:42;;;;;;;16.25;4.47;;;30.80;1.00;;;;;;5143142;27;20027;-62
2022/06/28 08:32:10;;;;;;;14.27;4.25;;;30.80;1.00;;;;;;5147006;27;20094;-59
2022/06/28 08:34:36;;;;;;;11.77;4.10;;;30.80;1.00;;;;;;5148359;27;20372;-67
2022/06/28 08:37:03;;;;;;;10.82;4.05;;;30.70;1.00;;;;;;5148614;27;20050;-64
2022/06/28 08:39:28;;;;;;;8.27;3.92;;;30.70;1.00;;;;;;5147055;27;20133;-64
2022/06/28 08:41:55;;;;;;;11.27;3.47;;;30.60;1.00;;;;;;5151419;27;20357;-60
2022/06/28 08:44:22;;;;;;;12.70;3.88;;;30.50;1.00;;;;;;5147728;27;20491;-57
2022/06/28 08:46:52;;;;;;;16.85;4.10;;;30.60;1.00;;;;;;5143955;27;20019;-60
2022/06/28 08:49:46;;;;;;;9.40;3.88;;;30.70;1.00;;;;;;5154573;27;20053;-58
2022/06/28 08:52:13;;;;;;;8.73;4.38;;;30.90;1.00;;;;;;5136808;27;20034;-64
2022/06/28 08:54:40;;;;;;;10.75;3.92;;;31.00;1.00;;;;;;5149395;27;20416;-60
2022/06/28 08:57:07;;;;;;;17.55;4.93;;;31.00;1.00;;;;;;5148298;27;20023;-61
2022/06/28 08:59:35;;;;;;;8.35;4.07;;;31.40;1.00;;;;;;5142639;27;20482;-65
2022/06/28 09:02:05;;;;;;;9.73;4.40;;;31.40;1.00;;;;;;5146156;27;20027;-63
2022/06/28 09:04:32;;;;;;;8.82;4.53;;;31.50;1.00;;;;;;5142809;27;20504;-64
2022/06/28 09:06:57;;;;;;;11.95;4.70;;;31.30;1.00;;;;;;5150025;27;20710;-63
2022/06/28 09:09:23;;;;;;;11.98;4.45;;;31.20;1.00;;;;;;5142658;27;20045;-62
2022/06/28 09:11:49;;;;;;;9.35;3.88;;;31.30;1.00;;;;;;5142479;27;20475;-64
2022/06/28 09:14:28;;;;;;;10.85;4.82;;;31.30;1.00;;;;;;5145495;27;20472;-65
2022/06/28 09:16:58;;;;;;;10.48;4.60;;;31.40;1.00;;;;;;5137855;27;20023;-65
2022/06/28 09:19:40;;;;;;;10.25;4.40;;;31.20;1.00;;;;;;5143622;27;20134;-61
2022/06/28 09:22:06;;;;;;;14.27;4.78;;;31.10;1.00;;;;;;5143346;27;20120;-63
2022/06/28 09:24:33;;;;;;;16.13;4.47;;;31.20;1.00;;;;;;5144324;27;20051;-58
2022/06/28 09:27:05;;;;;;;8.20;4.35;;;31.10;1.00;;;;;;5145019;27;20108;-60
2022/06/28 09:29:47;;;;;;;9.18;4.65;;;30.90;1.00;;;;;;5145006;27;20149;-58
2022/06/28 09:32:13;;;;;;;18.67;5.38;;;30.70;1.00;;;;;;5151774;27;20120;-59
2022/06/28 09:35:03;;;;;;;15.07;5.38;;;30.40;1.00;;;;;;5147938;27;20539;-67
2022/06/28 09:37:56;;;;;;;18.88;6.55;;;30.20;1.00;;;;;;5141339;27;20082;-64
2022/06/28 09:40:29;;;;;;;12.18;5.38;;;30.10;1.00;;;;;;5135302;27;20100;-62
2022/06/28 09:43:07;;;;;;;25.95;7.57;;;30.00;1.00;;;;;;5140239;27;20386;-69
2022/06/28 09:45:38;;;;;;;16.52;5.97;;;29.80;1.00;;;;;;5149342;27;20027;-64
2022/06/28 09:48:05;;;;;;;18.92;6.05;;;29.30;1.00;;;;;;5147151;27;20110;-68
2022/06/28 09:50:33;;;;;;;23.33;6.07;;;29.50;1.00;;;;;;5157249;27;20047;-63
2022/06/28 09:53:00;;;;;;;18.27;6.05;;;29.60;1.00;;;;;;5143031;27;20432;-65
2022/06/28 09:55:28;;;;;;;18.88;6.05;;;29.50;1.00;;;;;;5137329;27;20452;-65
2022/06/28 09:57:54;;;;;;;17.30;6.57;;;28.90;1.00;;;;;;5142888;27;20038;-67
2022/06/28 10:00:21;;;;;;;23.50;7.32;;;28.60;1.00;;;;;;5140205;27;20027;-65
2022/06/28 10:02:48;;;;;;;17.02;7.32;;;28.50;1.00;;;;;;5151737;27;20102;-68
2022/06/28 10:05:14;;;;;;;14.60;6.80;;;28.60;1.00;;;;;;5153243;27;20022;-61
2022/06/28 10:07:40;;;;;;;18.95;7.28;;;28.50;1.00;;;;;;5142636;27;20376;-66
2022/06/28 10:10:09;;;;;;;20.90;7.65;;;28.40;1.00;;;;;;5136059;27;20109;-61
2022/06/28 10:15:35;;;;;;;16.20;6.45;;;28.40;1.00;;;;;;5138865;27;20107;-61
2022/06/28 10:18:04;;;;;;;16.63;7.22;;;27.80;2.20;;;;;;5162147;27;20026;-65
2022/06/28 10:20:33;;;;;;;17.80;6.18;;;28.10;1.00;;;;;;5153098;27;20031;-63
2022/06/28 10:23:28;;;;;;;18.88;5.63;;;28.30;1.00;;;;;;5140004;27;20030;-62
2022/06/28 10:26:17;;;;;;;15.10;7.35;;;27.60;1.00;;;;;;5141542;27;20083;-64
2022/06/28 10:28:55;;;;;;;11.57;6.28;;;27.30;1.00;;;;;;5144616;27;20050;-62
2022/06/28 10:31:23;;;;;;;26.08;7.28;;;27.40;1.00;;;;;;5147650;27;20027;-59
2022/06/28 10:33:53;;;;;;;49.78;13.57;;;25.60;99.90;;;;;;5142828;27;20033;-62
2022/06/28 10:36:21;;;;;;;18.45;7.28;;;25.80;99.90;;;;;;5138291;27;20562;-62
2022/06/28 10:39:08;;;;;;;17.63;7.30;;;25.50;99.90;;;;;;5150968;27;20026;-56
2022/06/28 10:41:42;;;;;;;20.25;8.38;;;25.50;99.90;;;;;;5144538;27;20062;-56
2022/06/28 10:44:11;;;;;;;19.88;7.78;;;24.40;99.90;;;;;;5149313;27;20019;-54
2022/06/28 10:46:37;;;;;;;21.05;8.25;;;24.50;99.90;;;;;;5137020;27;20057;-52
2022/06/28 10:49:11;;;;;;;16.92;7.75;;;24.60;99.90;;;;;;5140956;27;20041;-53
2022/06/28 10:51:59;;;;;;;20.13;7.85;;;24.90;99.90;;;;;;5145843;27;20022;-60
2022/06/28 10:54:25;;;;;;;17.80;9.68;;;25.00;99.90;;;;;;5155238;27;20030;-60
2022/06/28 10:56:52;;;;;;;14.00;8.15;;;25.00;99.90;;;;;;5139071;27;20533;-60
2022/06/28 10:59:19;;;;;;;13.48;8.02;;;24.50;99.90;;;;;;5139342;27;20035;-59
2022/06/28 11:01:50;;;;;;;17.73;7.90;;;24.60;99.90;;;;;;5142869;27;20030;-59
2022/06/28 11:04:18;;;;;;;17.33;7.25;;;24.40;99.90;;;;;;5146628;27;20029;-61
2022/06/28 11:06:48;;;;;;;20.42;8.57;;;24.50;99.90;;;;;;5145821;27;20026;-51
2022/06/28 11:09:44;;;;;;;11.35;6.72;;;24.20;99.90;;;;;;5149762;27;20082;-58
2022/06/28 11:12:24;;;;;;;17.50;8.05;;;23.80;99.90;;;;;;5145580;27;20038;-60
2022/06/28 11:14:55;;;;;;;13.75;7.25;;;24.00;99.90;;;;;;5150530;27;20058;-65
2022/06/28 11:17:40;;;;;;;12.00;5.93;;;23.90;99.90;;;;;;5151434;27;20478;-61
2022/06/28 11:20:11;;;;;;;13.57;6.53;;;23.80;99.90;;;;;;5154953;27;20019;-58
2022/06/28 11:22:45;;;;;;;15.70;8.45;;;23.90;99.90;;;;;;5152537;27;20445;-59
2022/06/28 11:25:18;;;;;;;21.33;8.23;;;24.00;99.90;;;;;;5149859;27;20515;-61
2022/06/28 11:27:47;;;;;;;17.00;8.00;;;24.00;99.90;;;;;;5155671;27;20026;-62
2022/06/28 11:30:14;;;;;;;23.90;8.52;;;24.00;99.90;;;;;;5152836;27;20019;-53
2022/06/28 11:32:43;;;;;;;17.83;7.78;;;24.10;99.90;;;;;;5145260;27;20047;-60
2022/06/28 11:35:16;;;;;;;15.07;7.38;;;24.00;99.90;;;;;;5146927;27;20114;-58
2022/06/28 11:38:03;;;;;;;17.45;7.78;;;24.00;99.90;;;;;;5147768;27;20023;-61
2022/06/28 11:40:38;;;;;;;15.05;7.53;;;23.90;99.90;;;;;;5149646;27;20015;-56
2022/06/28 11:43:15;;;;;;;20.13;7.55;;;24.10;99.90;;;;;;5166117;27;20341;-61
2022/06/28 11:45:46;;;;;;;17.38;7.60;;;24.00;99.90;;;;;;5155000;27;20033;-62
2022/06/28 11:48:13;;;;;;;17.20;6.28;;;24.40;99.90;;;;;;5143972;27;20035;-61
2022/06/28 11:50:51;;;;;;;12.88;6.90;;;24.20;99.90;;;;;;5136731;27;20110;-61
2022/06/28 11:53:18;;;;;;;10.68;6.05;;;24.40;99.90;;;;;;5150258;27;20098;-61
2022/06/28 11:55:52;;;;;;;16.75;6.38;;;24.60;99.90;;;;;;5137694;27;20046;-61
2022/06/28 11:58:28;;;;;;;15.07;6.65;;;24.80;99.90;;;;;;5147910;27;20444;-61
2022/06/28 12:01:14;;;;;;;15.82;7.15;;;25.00;99.90;;;;;;5154010;27;20568;-60
2022/06/28 12:03:42;;;;;;;15.32;7.68;;;25.00;99.90;;;;;;5148809;27;20060;-60
2022/06/28 12:06:19;;;;;;;17.73;7.25;;;25.00;99.90;;;;;;5154716;27;20026;-60
2022/06/28 12:08:51;;;;;;;16.63;6.60;;;25.20;25.70;;;;;;5153304;27;20091;-60
2022/06/28 12:11:32;;;;;;;14.55;5.72;;;25.40;20.60;;;;;;5153982;27;20078;-60
2022/06/28 12:14:00;;;;;;;13.63;5.93;;;25.60;24.20;;;;;;5154095;27;20034;-60
2022/06/28 12:16:32;;;;;;;15.05;6.03;;;25.80;18.90;;;;;;5155009;27;20112;-60
2022/06/28 12:18:59;;;;;;;12.15;5.55;;;25.80;17.20;;;;;;5142804;27;20417;-61
2022/06/28 12:21:25;;;;;;;13.73;5.60;;;25.90;20.90;;;;;;5154723;27;20023;-61
2022/06/28 12:23:56;;;;;;;13.98;5.75;;;26.20;14.70;;;;;;5151777;27;20113;-61
2022/06/28 12:26:37;;;;;;;15.93;6.57;;;26.30;14.10;;;;;;5139079;27;20034;-61
2022/06/28 12:29:03;;;;;;;13.32;5.63;;;26.70;5.50;;;;;;5145946;27;20134;-54
2022/06/28 12:31:28;;;;;;;14.40;5.85;;;27.10;8.80;;;;;;5135254;27;20094;-54
2022/06/28 12:33:54;;;;;;;17.42;7.22;;;27.60;5.00;;;;;;5151657;27;20027;-52
2022/06/28 12:36:20;;;;;;;15.65;6.50;;;27.80;2.10;;;;;;5144801;27;20023;-51
2022/06/28 12:38:45;;;;;;;16.23;5.82;;;28.20;1.00;;;;;;5149591;27;20029;-50
2022/06/28 12:41:11;;;;;;;12.35;5.68;;;28.30;1.00;;;;;;5147048;27;20473;-51
2022/06/28 12:43:36;;;;;;;8.70;5.00;;;28.70;1.00;;;;;;5149077;27;20106;-50
2022/06/28 12:46:02;;;;;;;13.10;6.10;;;29.00;1.00;;;;;;5155621;27;20067;-53
2022/06/28 12:48:28;;;;;;;14.02;6.18;;;29.90;1.00;;;;;;5154414;27;20079;-59
2022/06/28 12:50:53;;;;;;;10.50;5.13;;;30.40;1.00;;;;;;5154825;27;20098;-59
2022/06/28 12:53:20;;;;;;;13.63;6.10;;;31.10;1.00;;;;;;5152979;27;20491;-56
2022/06/28 12:55:46;;;;;;;15.38;5.72;;;31.80;1.00;;;;;;5154981;27;20022;-63
2022/06/28 12:58:12;;;;;;;13.07;6.07;;;33.00;1.00;;;;;;5145888;27;20019;-63
2022/06/28 13:00:37;;;;;;;18.25;5.85;;;34.70;1.00;;;;;;5153822;27;20042;-62